createdAt,value
2019-05-02T08:18:17.862Z,997.16
2019-05-02T08:20:21.296Z,997.17
2019-05-02T08:22:04.699Z,997.21
2019-05-02T08:22:12.977Z,997.21
2019-05-02T08:22:13.490Z,997.21
2019-05-02T08:22:59.161Z,997.23
2019-05-02T08:24:02.179Z,997.17
2019-05-02T08:25:10.191Z,997.21
2019-05-02T08:25:10.872Z,997.21
2019-05-02T08:26:05.963Z,997.16
2019-05-02T08:27:06.828Z,997.2
2019-05-02T08:28:10.021Z,997.29
2019-05-02T08:28:16.053Z,997.29
2019-05-02T08:29:15.297Z,997.26
2019-05-02T08:30:16.624Z,997.19
2019-05-02T08:31:20.769Z,997.16
2019-05-02T08:32:26.820Z,997.26
2019-05-02T08:33:29.338Z,997.28
2019-05-02T08:33:34.849Z,997.28
2019-05-02T08:34:30.125Z,997.29
2019-05-02T08:35:29.650Z,997.28
2019-05-02T08:36:32.944Z,997.25
2019-05-02T08:37:55.847Z,997.23
2019-05-02T08:38:48.837Z,997.29
2019-05-02T08:39:48.285Z,997.25
2019-05-02T08:40:49.758Z,997.23
2019-05-02T08:41:51.219Z,997.25
2019-05-02T08:41:56.385Z,997.25
2019-05-02T08:41:57.983Z,997.25
2019-05-02T08:42:47.243Z,997.25
2019-05-02T08:43:48.919Z,997.25
2019-05-02T08:44:51.334Z,997.28
2019-05-02T08:44:51.585Z,997.28
2019-05-02T08:44:56.428Z,997.28
2019-05-02T08:45:44.918Z,997.25
2019-05-02T08:46:51.080Z,997.31
2019-05-02T08:46:53.793Z,997.31
2019-05-02T08:47:45.445Z,997.31
2019-05-02T08:48:51.355Z,997.32
2019-05-02T08:49:54.787Z,997.25
2019-05-02T08:49:56.720Z,997.25
2019-05-02T08:50:51.373Z,997.23
2019-05-02T08:51:58.641Z,997.22
2019-05-02T08:53:04.345Z,997.28
2019-05-02T08:54:03.336Z,997.25
2019-05-02T08:55:09.121Z,997.33
2019-05-02T08:55:10.030Z,997.33
2019-05-02T08:56:03.506Z,997.22
2019-05-02T08:57:05.433Z,997.31
2019-05-02T08:58:06.600Z,997.25
2019-05-02T08:58:14.515Z,997.25
2019-05-02T08:58:15.893Z,997.25
2019-05-02T08:59:03.879Z,997.28
2019-05-02T09:00:01.757Z,997.23
2019-05-02T09:01:00.445Z,997.31
2019-05-02T09:01:57.800Z,997.23
2019-05-02T09:03:02.618Z,997.23
2019-05-02T09:03:04.618Z,997.23
2019-05-02T09:04:01.537Z,997.23
2019-05-02T09:05:06.222Z,997.23
2019-05-02T09:06:05.873Z,997.06
2019-05-02T09:07:03.724Z,997.09
2019-05-02T09:08:02.612Z,997.09
2019-05-02T09:09:00.950Z,997.13
2019-05-02T09:46:55.280Z,996.66
2019-05-02T09:46:57.111Z,996.66
2019-05-02T09:47:55.328Z,996.68
2019-05-02T09:47:56.283Z,996.68
2019-05-02T09:47:58.208Z,996.68
2019-05-02T09:48:47.328Z,996.63
2019-05-02T09:49:49.075Z,996.71
2019-05-02T09:50:52.800Z,996.68
2019-05-02T09:51:59.758Z,996.69
2019-05-02T09:52:58.182Z,996.65
2019-05-02T09:54:02.554Z,996.6
2019-05-02T09:54:06.309Z,996.6
2019-05-02T09:54:59.966Z,996.62
2019-05-02T09:56:02.213Z,996.65
2019-05-02T09:57:02.876Z,996.56
2019-05-02T09:58:19.661Z,996.54
2019-05-02T09:58:21.241Z,996.54
2019-05-02T09:58:24.049Z,996.54
2019-05-02T09:59:27.751Z,996.51
2019-05-02T09:59:27.774Z,996.51
2019-05-02T09:59:30.281Z,996.51
2019-05-02T10:00:19.478Z,996.5
2019-05-02T10:01:22.380Z,996.53
2019-05-02T10:02:25.247Z,996.54
2019-05-02T10:03:26.115Z,996.51
2019-05-02T10:04:26.759Z,996.48
2019-05-02T10:05:28.751Z,996.44
2019-05-02T10:06:32.035Z,996.47
2019-05-02T10:07:32.457Z,996.49
2019-05-02T10:08:32.144Z,996.49
2019-05-02T10:09:38.338Z,996.45
2019-05-02T10:10:42.566Z,996.38
2019-05-02T10:10:46.006Z,996.38
2019-05-02T10:11:45.219Z,996.38
2019-05-02T10:12:47.285Z,996.38
2019-05-02T10:13:47.856Z,996.32
2019-05-02T10:14:52.776Z,996.32
2019-05-02T10:15:54.146Z,996.32
2019-05-02T10:16:57.683Z,996.31
2019-05-02T10:17:06.913Z,996.31
2019-05-02T10:17:07.547Z,996.31
2019-05-02T10:18:08.710Z,996.36
2019-05-02T10:18:11.127Z,996.36
2019-05-02T10:18:12.087Z,996.36
2019-05-02T10:19:09.553Z,996.28
2019-05-02T10:19:10.790Z,996.28
2019-05-02T10:20:05.355Z,996.31
2019-05-02T10:21:07.833Z,996.31
2019-05-02T10:21:13.558Z,996.31
2019-05-02T10:21:17.215Z,996.31
2019-05-02T10:22:12.248Z,996.29
2019-05-02T10:23:19.462Z,996.36
2019-05-02T10:23:19.472Z,996.36
2019-05-02T10:24:16.185Z,996.29
2019-05-02T10:25:16.460Z,996.2
2019-05-02T10:26:24.460Z,996.23
2019-05-02T10:27:22.457Z,996.23
2019-05-02T10:28:26.285Z,996.25
2019-05-02T10:29:28.293Z,996.26
2019-05-02T10:30:27.914Z,996.23
2019-05-02T10:31:37.641Z,996.16
2019-05-02T10:32:57.298Z,996.1
2019-05-02T10:34:02.232Z,996.16
2019-05-02T10:34:59.407Z,995.98
2019-05-02T10:35:59.849Z,996.1
2019-05-02T10:37:01.085Z,996.07
2019-05-02T10:38:02.494Z,996.09
2019-05-02T10:39:11.850Z,996.09
2019-05-02T10:39:15.883Z,996.09
2019-05-02T10:40:12.727Z,996.03
2019-05-02T10:40:17.105Z,996.03
2019-05-02T10:41:07.142Z,996.04
2019-05-02T10:42:05.507Z,996.01
2019-05-02T10:43:02.986Z,996.01
2019-05-02T10:44:02.204Z,995.97
2019-05-02T10:44:59.232Z,996.01
2019-05-02T10:45:56.970Z,995.94
2019-05-02T10:46:53.946Z,995.88
2019-05-02T10:47:52.725Z,995.99
2019-05-02T10:48:52.538Z,995.94
2019-05-02T10:49:49.229Z,995.87
2019-05-02T10:50:52.346Z,995.99
2019-05-02T10:51:51.853Z,995.93
2019-05-02T10:52:52.766Z,995.85
2019-05-02T10:53:56.431Z,995.94
2019-05-02T10:54:52.888Z,995.94
2019-05-02T10:55:52.115Z,995.94
2019-05-02T10:56:51.833Z,995.91
2019-05-02T10:57:47.271Z,995.94
2019-05-02T10:58:52.316Z,995.93
2019-05-02T10:59:52.547Z,995.94
2019-05-02T11:00:52.185Z,995.94
2019-05-02T11:01:52.195Z,996.02
2019-05-02T11:02:52.569Z,995.87
2019-05-02T11:03:58.221Z,995.9
2019-05-02T11:04:58.081Z,995.87
2019-05-02T11:05:57.901Z,995.9
2019-05-02T11:06:03.656Z,995.9
2019-05-02T11:06:07.773Z,995.9
2019-05-02T11:06:57.503Z,995.86
2019-05-02T11:08:04.797Z,995.94
2019-05-02T11:08:06.287Z,995.94
2019-05-02T11:09:26.283Z,995.93
2019-05-02T11:10:21.694Z,995.87
2019-05-02T11:11:17.577Z,995.85
2019-05-02T11:12:24.321Z,995.85
2019-05-02T11:12:25.576Z,995.85
2019-05-02T11:12:40.735Z,995.85
2019-05-02T11:13:17.915Z,995.72
2019-05-02T11:14:16.702Z,995.8
2019-05-02T11:15:15.873Z,995.85
2019-05-02T11:16:12.541Z,995.69
2019-05-02T11:17:13.917Z,995.62
2019-05-02T11:17:18.015Z,995.62
2019-05-02T11:18:16.626Z,995.69
2019-05-02T11:19:21.395Z,995.64
2019-05-02T11:20:20.205Z,995.66
2019-05-02T11:21:18.894Z,995.64
2019-05-02T11:22:16.138Z,995.71
2019-05-02T11:23:22.012Z,995.61
2019-05-02T11:24:17.732Z,995.69
2019-05-02T11:25:15.949Z,995.72
2019-05-02T11:26:14.511Z,995.53
2019-05-02T11:26:21.556Z,995.53
2019-05-02T11:26:25.184Z,995.53
2019-05-02T11:27:14.154Z,995.57
2019-05-02T11:28:15.944Z,995.63
2019-05-02T11:29:15.758Z,995.74
2019-05-02T11:30:16.807Z,995.72
2019-05-02T11:30:22.400Z,995.72
2019-05-02T11:30:26.479Z,995.72
2019-05-02T11:31:12.439Z,995.69
2019-05-02T11:32:15.176Z,995.66
2019-05-02T11:33:13.585Z,995.65
2019-05-02T11:34:22.327Z,995.66
2019-05-02T11:35:23.081Z,995.57
2019-05-02T11:36:22.333Z,995.6
2019-05-02T11:37:18.506Z,995.52
2019-05-02T11:38:28.657Z,995.57
2019-05-02T11:38:46.051Z,995.57
2019-05-02T11:38:51.939Z,995.57
2019-05-02T11:39:23.643Z,995.66
2019-05-02T11:39:27.331Z,995.66
2019-05-02T11:39:32.781Z,995.66
2019-05-02T11:40:17.073Z,995.6
2019-05-02T11:41:19.467Z,995.65
2019-05-02T11:42:27.163Z,995.57
2019-05-02T11:43:22.822Z,995.49
2019-05-02T11:44:22.466Z,995.52
2019-05-02T11:45:32.362Z,995.49
2019-05-02T11:46:23.743Z,995.55
2019-05-02T11:47:24.331Z,995.49
2019-05-02T11:47:27.072Z,995.49
2019-05-02T11:48:26.772Z,995.6
2019-05-02T11:49:25.864Z,995.49
2019-05-02T11:50:31.985Z,995.52
2019-05-02T11:50:35.380Z,995.52
2019-05-02T11:51:24.198Z,995.51
2019-05-02T11:52:27.541Z,995.45
2019-05-02T11:52:33.041Z,995.45
2019-05-02T11:52:37.554Z,995.45
2019-05-02T11:53:28.967Z,995.57
2019-05-02T11:53:29.481Z,995.57
2019-05-02T11:54:22.765Z,995.49
2019-05-02T11:55:19.078Z,995.49
2019-05-02T11:55:28.862Z,995.49
2019-05-02T11:56:28.604Z,995.49
2019-05-02T11:57:28.504Z,995.52
2019-05-02T11:57:30.785Z,995.52
2019-05-02T11:58:23.099Z,995.55
2019-05-02T11:59:38.469Z,995.5
2019-05-02T12:00:45.387Z,995.46
2019-05-02T12:00:48.037Z,995.46
2019-05-02T12:00:49.652Z,995.46
2019-05-02T12:01:39.557Z,995.49
2019-05-02T12:02:35.257Z,995.53
2019-05-02T12:03:42.281Z,995.53
2019-05-02T12:03:44.347Z,995.53
2019-05-02T12:04:38.024Z,995.37
2019-05-02T12:05:35.828Z,995.49
2019-05-02T12:06:33.270Z,995.42
2019-05-02T12:07:35.211Z,995.39
2019-05-02T12:08:32.196Z,995.37
2019-05-02T12:10:04.715Z,995.4
2019-05-02T12:10:56.605Z,995.25
2019-05-02T12:11:59.273Z,995.3
2019-05-02T12:13:02.039Z,995.33
2019-05-02T12:13:58.763Z,995.25
2019-05-02T12:14:53.456Z,995.28
2019-05-02T12:15:58.257Z,995.22
2019-05-02T12:16:56.021Z,995.21
2019-05-02T12:17:53.781Z,995.27
2019-05-02T12:19:08.195Z,995.19
2019-05-02T12:19:09.413Z,995.19
2019-05-02T12:19:11.772Z,995.19
2019-05-02T12:19:54.938Z,995.22
2019-05-02T12:20:53.379Z,995.25
2019-05-02T12:21:54.670Z,995.12
2019-05-02T12:23:19.432Z,995.3
2019-05-02T12:24:16.249Z,995.18
2019-05-02T12:25:12.656Z,995.16
2019-05-02T12:26:09.585Z,995.18
2019-05-02T12:27:11.798Z,995.18
2019-05-02T12:28:13.559Z,995.18
2019-05-02T12:29:12.243Z,995.22
2019-05-02T12:30:15.252Z,995.14
2019-05-02T12:31:13.308Z,995.11
2019-05-02T12:32:12.012Z,995.12
2019-05-02T12:33:23.689Z,995.18
2019-05-02T12:33:24.168Z,995.18
2019-05-02T12:34:22.483Z,995.14
2019-05-02T12:35:15.998Z,995.15
2019-05-02T12:36:18.260Z,995.11
2019-05-02T12:37:13.472Z,995.22
2019-05-02T12:38:18.329Z,995.09
2019-05-02T12:39:26.890Z,995.12
2019-05-02T12:39:27.392Z,995.12
2019-05-02T12:40:21.713Z,995.15
2019-05-02T12:41:22.372Z,995.08
2019-05-02T12:41:25.398Z,995.08
2019-05-02T12:42:17.727Z,995.15
2019-05-02T12:43:18.690Z,995.06
2019-05-02T12:44:18.211Z,995.09
2019-05-02T12:45:17.669Z,995.08
2019-05-02T12:46:17.962Z,995.08
2019-05-02T12:47:13.686Z,995.14
2019-05-02T12:48:33.013Z,995.06
2019-05-02T12:49:28.167Z,995.11
2019-05-02T12:49:34.136Z,995.11
2019-05-02T12:50:33.627Z,995.06
2019-05-02T12:51:34.095Z,995.11
2019-05-02T12:52:36.429Z,995
2019-05-02T12:53:32.648Z,994.93
2019-05-02T12:54:32.425Z,994.97
2019-05-02T12:55:29.004Z,995.03
2019-05-02T12:56:26.357Z,994.93
2019-05-02T12:57:27.436Z,994.96
2019-05-02T12:58:23.051Z,994.96
2019-05-02T12:59:28.156Z,994.93
2019-05-02T13:00:26.700Z,994.93
2019-05-02T13:01:32.724Z,994.93
2019-05-02T13:01:34.079Z,994.93
2019-05-02T13:02:26.645Z,994.96
2019-05-02T13:03:26.926Z,994.83
2019-05-02T13:04:28.566Z,994.78
2019-05-02T13:05:27.703Z,994.8
2019-05-02T13:06:29.103Z,994.81
2019-05-02T13:07:26.895Z,994.81
2019-05-02T13:08:29.543Z,994.72
2019-05-02T13:09:28.807Z,994.66
2019-05-02T13:10:27.773Z,994.86
2019-05-02T13:11:27.180Z,994.86
2019-05-02T13:12:27.681Z,994.72
2019-05-02T13:13:32.711Z,994.72
2019-05-02T13:14:38.064Z,994.69
2019-05-02T13:15:32.944Z,994.75
2019-05-02T13:16:33.551Z,994.74
2019-05-02T13:17:54.581Z,994.67
2019-05-02T13:18:51.938Z,994.71
2019-05-02T13:19:57.054Z,994.63
2019-05-02T13:19:57.112Z,994.63
2019-05-02T13:20:01.513Z,994.63
2019-05-02T13:20:52.866Z,994.63
2019-05-02T13:21:58.286Z,994.58
2019-05-02T13:21:59.489Z,994.58
2019-05-02T13:23:00.997Z,994.6
2019-05-02T13:23:54.878Z,994.63
2019-05-02T13:24:59.409Z,994.58
2019-05-02T13:26:02.355Z,994.67
2019-05-02T13:26:59.280Z,994.61
2019-05-02T13:27:55.394Z,994.55
2019-05-02T13:28:56.520Z,994.48
2019-05-02T13:29:52.431Z,994.47
2019-05-02T13:30:51.599Z,994.41
2019-05-02T13:31:52.338Z,994.5
2019-05-02T13:31:53.281Z,994.5
2019-05-02T13:32:53.863Z,994.39
2019-05-02T13:32:57.876Z,994.39
2019-05-02T13:33:54.903Z,994.54
2019-05-02T13:35:02.247Z,994.5
2019-05-02T13:36:02.747Z,994.5
2019-05-02T13:37:02.800Z,994.41
2019-05-02T13:38:04.956Z,994.35
2019-05-02T13:38:05.492Z,994.35
2019-05-02T13:39:01.765Z,994.42
2019-05-02T13:40:12.275Z,994.38
2019-05-02T13:41:12.035Z,994.32
2019-05-02T13:42:35.489Z,994.39
2019-05-02T13:43:33.044Z,994.38
2019-05-02T13:44:32.655Z,994.39
2019-05-02T13:45:32.556Z,994.44
2019-05-02T13:46:32.102Z,994.35
2019-05-02T13:47:51.903Z,994.33
2019-05-02T13:48:52.584Z,994.32
2019-05-02T13:49:56.360Z,994.36
2019-05-02T13:50:00.695Z,994.36
2019-05-02T13:51:12.968Z,994.25
2019-05-02T13:52:07.863Z,994.23
2019-05-02T13:53:08.767Z,994.29
2019-05-02T13:54:09.518Z,994.28
2019-05-02T13:55:11.833Z,994.29
2019-05-02T13:56:13.910Z,994.28
2019-05-02T13:57:13.950Z,994.34
2019-05-02T13:58:12.166Z,994.23
2019-05-02T13:59:12.997Z,994.22
2019-05-02T14:00:13.296Z,994.2
2019-05-02T14:01:13.971Z,994.25
2019-05-02T14:02:13.773Z,994.25
2019-05-02T14:03:12.850Z,994.29
2019-05-02T14:04:14.742Z,994.18
2019-05-02T14:05:14.747Z,994.18
2019-05-02T14:06:13.249Z,994.21
2019-05-02T14:07:13.239Z,994.15
2019-05-02T14:07:17.602Z,994.15
2019-05-02T14:08:08.811Z,994.18
2019-05-02T14:09:07.434Z,994.16
2019-05-02T14:09:16.989Z,994.16
2019-05-02T14:09:20.047Z,994.16
2019-05-02T14:10:11.968Z,994.23
2019-05-02T14:11:10.398Z,994.16
2019-05-02T14:12:09.329Z,994.13
2019-05-02T14:13:16.649Z,994.19
2019-05-02T14:14:18.220Z,994.13
2019-05-02T14:15:16.909Z,994.1
2019-05-02T14:16:14.003Z,994.15
2019-05-02T14:17:15.931Z,994.18
2019-05-02T14:18:14.861Z,994.13
2019-05-02T14:19:12.629Z,994.12
2019-05-02T14:20:13.102Z,994.21
2019-05-02T14:21:07.565Z,994.13
2019-05-02T14:22:07.775Z,994.15
2019-05-02T14:23:09.440Z,994.21
2019-05-02T14:24:07.608Z,994.28
2019-05-02T14:25:05.437Z,994.28
2019-05-02T14:26:11.718Z,994.24
2019-05-02T14:27:17.330Z,994.41
2019-05-02T14:28:17.377Z,994.31
2019-05-02T14:29:16.245Z,994.33
2019-05-02T14:30:12.210Z,994.31
2019-05-02T14:31:12.977Z,994.34
2019-05-02T14:32:23.413Z,994.37
2019-05-02T14:32:25.692Z,994.37
2019-05-02T14:32:26.626Z,994.37
2019-05-02T14:33:16.145Z,994.33
2019-05-02T14:34:18.659Z,994.31
2019-05-02T14:35:28.037Z,994.24
2019-05-02T14:36:27.450Z,994.3
2019-05-02T14:37:24.975Z,994.37
2019-05-02T14:38:27.750Z,994.3
2019-05-02T14:39:29.984Z,994.37
2019-05-02T14:40:31.932Z,994.33
2019-05-02T14:41:40.890Z,994.36
2019-05-02T14:41:41.006Z,994.36
2019-05-02T14:41:44.561Z,994.36
2019-05-02T14:42:32.229Z,994.36
2019-05-02T14:43:31.650Z,994.36
2019-05-02T14:44:50.867Z,994.25
2019-05-02T14:45:00.430Z,994.25
2019-05-02T14:45:01.312Z,994.25
2019-05-02T14:45:33.890Z,994.34
2019-05-02T14:46:37.904Z,994.33
2019-05-02T14:47:34.800Z,994.33
2019-05-02T14:48:34.513Z,994.24
2019-05-02T14:48:43.695Z,994.24
2019-05-02T14:48:45.313Z,994.24
2019-05-02T14:49:34.060Z,994.33
2019-05-02T14:50:36.518Z,994.3
2019-05-02T14:50:41.816Z,994.3
2019-05-02T14:50:45.784Z,994.3
2019-05-02T14:51:33.785Z,994.21
2019-05-02T14:52:37.068Z,994.22
2019-05-02T14:53:44.743Z,994.22
2019-05-02T14:54:43.744Z,994.25
2019-05-02T14:54:48.054Z,994.25
2019-05-02T14:55:42.124Z,994.25
2019-05-02T14:56:48.559Z,994.22
2019-05-02T14:57:45.198Z,994.21
2019-05-02T14:58:42.774Z,994.25
2019-05-02T14:59:42.720Z,994.25
2019-05-02T15:00:47.920Z,994.27
2019-05-02T15:01:47.059Z,994.18
2019-05-02T15:02:48.955Z,994.17
2019-05-02T15:02:49.571Z,994.17
2019-05-02T15:03:42.310Z,994.21
2019-05-02T15:04:48.930Z,994.17
2019-05-02T15:05:42.756Z,994.17
2019-05-02T15:06:43.521Z,994.18
2019-05-02T15:06:47.568Z,994.18
2019-05-02T15:07:42.128Z,994.12
2019-05-02T15:08:46.894Z,994.17
2019-05-02T15:09:43.805Z,994.17
2019-05-02T15:10:52.586Z,994.24
2019-05-02T15:10:52.745Z,994.24
2019-05-02T15:10:56.477Z,994.24
2019-05-02T15:11:43.034Z,994.17
2019-05-02T15:12:41.950Z,994.17
2019-05-02T15:13:41.053Z,994.14
2019-05-02T15:14:43.245Z,994.15
2019-05-02T15:15:42.930Z,994.09
2019-05-02T15:16:45.154Z,994.17
2019-05-02T15:17:50.370Z,994.18
2019-05-02T15:18:47.561Z,994.14
2019-05-02T15:19:49.654Z,994.18
2019-05-02T15:20:46.329Z,994.14
2019-05-02T15:21:54.386Z,994.14
2019-05-02T15:21:55.961Z,994.14
2019-05-02T15:22:43.276Z,994.14
2019-05-02T15:23:42.327Z,994.05
2019-05-02T15:24:45.376Z,994.11
2019-05-02T15:25:51.745Z,994.08
2019-05-02T15:25:55.959Z,994.08
2019-05-02T15:26:49.794Z,993.99
2019-05-02T15:27:58.489Z,994.05
2019-05-02T15:28:00.010Z,994.05
2019-05-02T15:28:02.565Z,994.05
2019-05-02T15:28:52.056Z,994.07
2019-05-02T15:29:48.772Z,994.02
2019-05-02T15:30:49.912Z,993.99
2019-05-02T15:31:53.121Z,993.93
2019-05-02T15:32:56.315Z,994.01
2019-05-02T15:33:56.202Z,993.9
2019-05-02T15:34:54.447Z,993.95
2019-05-02T15:35:57.347Z,993.95
2019-05-02T15:36:03.109Z,993.95
2019-05-02T15:36:07.445Z,993.95
2019-05-02T15:36:53.806Z,993.93
2019-05-02T15:37:56.669Z,993.93
2019-05-02T15:38:02.720Z,993.93
2019-05-02T15:38:06.572Z,993.93
2019-05-02T15:38:49.997Z,993.86
2019-05-02T15:40:50.525Z,993.83
2019-05-02T15:40:53.719Z,993.83
2019-05-02T15:41:48.602Z,993.86
2019-05-02T15:42:43.398Z,993.74
2019-05-02T15:43:44.288Z,993.87
2019-05-02T15:43:49.240Z,993.87
2019-05-02T15:44:40.422Z,993.84
2019-05-02T15:45:41.965Z,993.77
2019-05-02T15:45:45.222Z,993.77
2019-05-02T15:46:36.356Z,993.87
2019-05-02T15:47:49.520Z,993.81
2019-05-02T15:48:48.547Z,993.77
2019-05-02T15:49:45.910Z,993.84
2019-05-02T15:50:50.141Z,993.79
2019-05-02T15:50:53.011Z,993.79
2019-05-02T15:51:49.540Z,993.8
2019-05-02T15:51:50.050Z,993.8
2019-05-02T15:52:48.200Z,993.81
2019-05-02T15:54:04.742Z,993.87
2019-05-02T15:54:06.083Z,993.87
2019-05-02T15:54:08.886Z,993.87
2019-05-02T15:54:59.808Z,993.73
2019-05-02T15:55:02.068Z,993.73
2019-05-02T15:56:20.322Z,993.75
2019-05-02T15:56:23.710Z,993.75
2019-05-02T15:57:12.920Z,993.71
2019-05-02T15:58:25.941Z,993.69
2019-05-02T15:58:27.858Z,993.69
2019-05-02T15:59:17.937Z,993.74
2019-05-02T16:00:32.303Z,993.68
2019-05-02T16:01:36.690Z,993.67
2019-05-02T16:01:41.561Z,993.67
2019-05-02T16:02:34.069Z,993.72
2019-05-02T16:03:41.995Z,993.68
2019-05-02T16:03:43.025Z,993.68
2019-05-02T16:03:46.406Z,993.68
2019-05-02T16:04:37.697Z,993.68
2019-05-02T16:05:45.083Z,993.83
2019-05-02T16:06:41.883Z,993.67
2019-05-02T16:07:43.323Z,993.68
2019-05-02T16:08:39.684Z,993.74
2019-05-02T16:09:47.362Z,993.77
2019-05-02T16:10:46.482Z,993.83
2019-05-02T16:11:56.872Z,993.92
2019-05-02T16:12:53.814Z,993.93
2019-05-02T16:13:55.711Z,994.01
2019-05-02T16:15:02.263Z,994.09
2019-05-02T16:16:02.211Z,994.27
2019-05-02T16:17:12.263Z,994.2
2019-05-02T16:18:12.745Z,994.26
2019-05-02T16:19:14.705Z,994.15
2019-05-02T16:19:27.597Z,994.15
2019-05-02T16:19:29.130Z,994.15
2019-05-02T16:20:10.376Z,994.27
2019-05-02T16:20:12.823Z,994.27
2019-05-02T16:21:05.540Z,994.2
2019-05-02T16:21:07.914Z,994.2
2019-05-02T16:22:06.865Z,994.24
2019-05-02T16:22:08.691Z,994.24
2019-05-02T16:23:08.543Z,994.2
2019-05-02T16:24:14.821Z,994.2
2019-05-02T16:25:12.183Z,994.18
2019-05-02T16:26:09.845Z,994.18
2019-05-02T16:27:11.585Z,994.14
2019-05-02T16:28:12.621Z,994.34
2019-05-02T16:29:12.956Z,994.28
2019-05-02T16:30:14.567Z,994.23
2019-05-02T16:31:22.104Z,994.3
2019-05-02T16:31:25.329Z,994.3
2019-05-02T16:32:45.219Z,994.2
2019-05-02T16:33:57.330Z,994.18
2019-05-02T16:34:54.655Z,994.24
2019-05-02T16:35:54.610Z,994.11
2019-05-02T16:36:52.548Z,994.23
2019-05-02T16:37:55.711Z,994.23
2019-05-02T16:38:52.156Z,994.18
2019-05-02T16:39:51.225Z,994.18
2019-05-02T16:41:04.040Z,994.2
2019-05-02T16:41:09.871Z,994.2
2019-05-02T16:41:10.008Z,994.2
2019-05-02T16:42:02.420Z,994.23
2019-05-02T16:43:02.885Z,994.3
2019-05-02T16:44:02.178Z,994.21
2019-05-02T16:45:06.402Z,994.27
2019-05-02T16:46:13.036Z,994.27
2019-05-02T16:46:14.293Z,994.27
2019-05-02T16:47:34.880Z,994.35
2019-05-02T16:48:37.590Z,994.3
2019-05-02T16:49:32.885Z,994.2
2019-05-02T16:50:38.925Z,994.3
2019-05-02T16:51:43.360Z,994.33
2019-05-02T16:52:48.263Z,994.23
2019-05-02T16:53:45.595Z,994.33
2019-05-02T16:54:45.423Z,994.29
2019-05-02T16:55:47.998Z,994.27
2019-05-02T16:57:09.640Z,994.3
2019-05-02T16:58:07.076Z,994.23
2019-05-02T16:59:23.275Z,994.33
2019-05-02T17:00:22.695Z,994.33
2019-05-02T17:01:27.252Z,994.38
2019-05-02T17:02:23.792Z,994.36
2019-05-02T17:03:27.609Z,994.39
2019-05-02T17:05:00.137Z,994.26
2019-05-02T17:05:08.386Z,994.26
2019-05-02T17:05:09.595Z,994.26
2019-05-02T17:05:54.421Z,994.32
2019-05-02T17:06:56.829Z,994.32
2019-05-02T17:07:02.177Z,994.32
2019-05-02T17:07:06.240Z,994.32
2019-05-02T17:08:23.355Z,994.45
2019-05-02T17:09:28.789Z,994.34
2019-05-02T17:09:33.809Z,994.34
2019-05-02T17:09:38.668Z,994.34
2019-05-02T17:10:19.018Z,994.4
2019-05-02T17:11:18.070Z,994.4
2019-05-02T17:12:15.425Z,994.4
2019-05-02T17:13:13.026Z,994.43
2019-05-02T17:14:17.692Z,994.46
2019-05-02T17:15:14.125Z,994.42
2019-05-02T17:16:13.244Z,994.42
2019-05-02T17:16:17.124Z,994.42
2019-05-02T17:17:08.161Z,994.45
2019-05-02T17:18:13.095Z,994.37
2019-05-02T17:19:08.141Z,994.39
2019-05-02T17:20:12.923Z,994.36
2019-05-02T17:20:16.593Z,994.36
2019-05-02T17:21:04.805Z,994.39
2019-05-02T17:22:02.692Z,994.45
2019-05-02T17:23:07.492Z,994.43
2019-05-02T17:24:12.682Z,994.4
2019-05-02T17:25:19.990Z,994.4
2019-05-02T17:25:27.006Z,994.4
2019-05-02T17:26:22.704Z,994.45
2019-05-02T17:27:20.684Z,994.45
2019-05-02T17:28:17.508Z,994.45
2019-05-02T17:29:22.710Z,994.48
2019-05-02T17:30:22.714Z,994.43
2019-05-02T17:31:32.804Z,994.45
2019-05-02T17:32:36.205Z,994.48
2019-05-02T17:32:37.769Z,994.48
2019-05-02T17:33:33.508Z,994.4
2019-05-02T17:34:30.666Z,994.4
2019-05-02T17:35:43.385Z,994.43
2019-05-02T17:35:49.589Z,994.43
2019-05-02T17:35:49.950Z,994.43
2019-05-02T17:36:38.124Z,994.46
2019-05-02T17:37:48.625Z,994.46
2019-05-02T17:37:52.438Z,994.46
2019-05-02T17:38:45.546Z,994.49
2019-05-02T17:39:46.057Z,994.49
2019-05-02T17:40:48.081Z,994.45
2019-05-02T17:41:50.028Z,994.46
2019-05-02T17:42:56.844Z,994.43
2019-05-02T17:43:04.894Z,994.43
2019-05-02T17:43:06.827Z,994.43
2019-05-02T17:43:50.423Z,994.52
2019-05-02T17:44:51.866Z,994.46
2019-05-02T17:44:57.942Z,994.46
2019-05-02T17:45:01.703Z,994.46
2019-05-02T17:46:39.209Z,994.51
2019-05-02T17:47:26.474Z,994.4
2019-05-02T17:48:26.549Z,994.5
2019-05-02T17:49:34.921Z,994.39
2019-05-02T17:49:36.599Z,994.39
2019-05-02T17:49:37.091Z,994.39
2019-05-02T17:50:35.690Z,994.53
2019-05-02T17:52:11.278Z,994.53
2019-05-02T17:52:19.741Z,994.53
2019-05-02T17:53:01.167Z,994.52
2019-05-02T17:53:03.232Z,994.52
2019-05-02T17:53:58.563Z,994.5
2019-05-02T17:55:01.771Z,994.53
2019-05-02T17:55:03.126Z,994.53
2019-05-02T17:56:01.912Z,994.46
2019-05-02T17:56:59.575Z,994.47
2019-05-02T17:58:04.610Z,994.5
2019-05-02T17:58:12.353Z,994.5
2019-05-02T17:58:13.937Z,994.5
2019-05-02T17:59:03.624Z,994.48
2019-05-02T18:00:02.934Z,994.5
2019-05-02T18:01:05.725Z,994.42
2019-05-02T18:02:12.315Z,994.46
2019-05-02T18:02:15.872Z,994.46
2019-05-02T18:03:09.622Z,994.49
2019-05-02T18:04:16.396Z,994.5
2019-05-02T18:05:13.957Z,994.48
2019-05-02T18:06:30.764Z,994.43
2019-05-02T18:06:32.780Z,994.43
2019-05-02T18:06:33.542Z,994.43
2019-05-02T18:07:18.785Z,994.48
2019-05-02T18:08:21.853Z,994.42
2019-05-02T18:09:26.367Z,994.4
2019-05-02T18:09:31.751Z,994.4
2019-05-02T18:09:35.688Z,994.4
2019-05-02T18:10:33.792Z,994.39
2019-05-02T18:11:36.498Z,994.43
2019-05-02T18:11:37.979Z,994.43
2019-05-02T18:12:33.256Z,994.36
2019-05-02T18:13:35.874Z,994.45
2019-05-02T18:14:39.148Z,994.45
2019-05-02T18:15:42.489Z,994.39
2019-05-02T18:16:47.140Z,994.45
2019-05-02T18:16:53.692Z,994.45
2019-05-02T18:16:55.703Z,994.45
2019-05-02T18:17:42.735Z,994.45
2019-05-02T18:18:43.798Z,994.48
2019-05-02T18:18:46.842Z,994.48
2019-05-02T18:20:12.481Z,994.49
2019-05-02T18:21:08.621Z,994.43
2019-05-02T18:22:23.430Z,994.46
2019-05-02T18:22:23.446Z,994.46
2019-05-02T18:22:25.545Z,994.46
2019-05-02T18:23:27.520Z,994.55
2019-05-02T18:23:29.743Z,994.55
2019-05-02T18:24:22.813Z,994.49
2019-05-02T18:25:25.641Z,994.45
2019-05-02T18:26:19.911Z,994.49
2019-05-02T18:27:22.657Z,994.4
2019-05-02T18:28:26.529Z,994.4
2019-05-02T18:29:25.428Z,994.51
2019-05-02T18:30:31.731Z,994.45
2019-05-02T18:31:30.554Z,994.4
2019-05-02T18:32:28.615Z,994.48
2019-05-02T18:33:35.897Z,994.54
2019-05-02T18:33:41.140Z,994.54
2019-05-02T18:34:32.471Z,994.46
2019-05-02T18:35:37.422Z,994.42
2019-05-02T18:35:43.065Z,994.42
2019-05-02T18:35:46.916Z,994.42
2019-05-02T18:36:38.529Z,994.51
2019-05-02T18:38:03.814Z,994.48
2019-05-02T18:39:03.908Z,994.45
2019-05-02T18:39:58.735Z,994.51
2019-05-02T18:41:05.866Z,994.51
2019-05-02T18:41:08.004Z,994.51
2019-05-02T18:41:59.486Z,994.52
2019-05-02T18:43:04.160Z,994.49
2019-05-02T18:43:56.307Z,994.58
2019-05-02T18:45:03.731Z,994.58
2019-05-02T18:46:07.499Z,994.58
2019-05-02T18:47:02.607Z,994.58
2019-05-02T18:48:06.536Z,994.58
2019-05-02T18:48:07.061Z,994.58
2019-05-02T18:49:03.137Z,994.57
2019-05-02T18:50:06.084Z,994.58
2019-05-02T18:50:08.863Z,994.58
2019-05-02T18:50:58.172Z,994.51
2019-05-02T18:52:01.797Z,994.49
2019-05-02T18:53:03.410Z,994.52
2019-05-02T18:54:04.374Z,994.49
2019-05-02T18:54:07.463Z,994.49
2019-05-02T18:54:12.011Z,994.49
2019-05-02T18:55:25.903Z,994.48
2019-05-02T18:56:22.211Z,994.58
2019-05-02T18:57:24.410Z,994.61
2019-05-02T18:57:26.159Z,994.61
2019-05-02T18:58:22.660Z,994.59